Warning: Javascript must be enabled to use all the features on this page!


Page Loading - Please Wait...

* We've detected you're using a mobile device. Find our Next Generation Station Page here.
Click to hideNews Bulletins
  • Explore the NEW USGS National Water Dashboard interactive map to access real-time water data from over 13,500 stations nationwide.
  • Full News RSS icon
  • USGS has scheduled planned maintenance to our IT infrastructure, starting Tuesday, June 28, 2022, from 8:00-10:00am Eastern Daylight Time (EDT). During the maintenance period, there will be a short interruption in the availability of the most recent time-series data. Any backlog will be made available following conclusion of the scheduled maintenance.

Peak Streamflow for the Nation

USGS 02061500 BIG OTTER RIVER NEAR EVINGTON, VA

Campbell County, Virginia
Hydrologic Unit Code 03010101
Latitude  37°12'30", Longitude  79°18'14" NAD27
Drainage area 315  square miles
Gage datum 544.02 feet above NGVD29
Output formats
Table
Graph
Tab-separated file
peakfq (watstore) format
Reselect output format
Water
Year
Date Gage
Height
(feet)
Stream-
flow
(cfs)
1937 1937-01-03 15.17 6,070
1938 1937-10-19 23.14 27,500
1939 1939-08-19 23.13 27,500
1940 1940-08-14 22.42 24,600
1941 1941-04-05 9.80 2,950
1942 1942-08-08 19.84 14,600
1943 1942-12-30 16.26 7,280
1944 1944-09-19 19.64 14,000
1945 1944-10-21 12.00 3,870
1946 1946-02-10 13.94 4,950
1947 1947-06-14 13.35 4,610
1948 1948-08-04 17.82 9,580
1949 1949-03-23 21.86 22,300
1950 1950-05-31 14.66 5,600
1951 1951-06-13 16.14 7,040
1952 1952-08-09 18.56 11,300
1953 1953-03-24 13.63 4,970
1954 1954-03-01 14.94 6,010
1955 1954-10-15 19.42 13,400
1956 1956-04-16 10.88 3,370
1957 1957-05-19 15.18 6,250
1958 1958-03-27 13.49 4,890
1959 1959-06-02 11.05 3,420
1960 1959-10-01 15.67 6,670
1961 1961-09-20 13.92 5,210
1962 1962-03-12 15.15 6,250
1963 1962-11-10 15.18 6,250
1964 1964-02-19 11.70 3,740
1965 1965-02-08 17.34 8,700
1966 1966-02-28 14.21 5,450
1967 1967-08-24 18.61 11,300
1968 1967-12-29 9.30 2,650
1969 1969-08-20 14.67 5,830
1970 1969-12-31 13.60 4,970
1971 1971-05-30 15.52 6,510
1972 1972-06-21 21.03 18,800
1973 1972-10-05 17.59 9,200
1974 1974-09-07 16.22 6,490
1975 1975-03-19 19.83 14,700
1976 1976-01-01 14.10 5,370
1977 1976-10-09 17.40 8,860
1978 1978-01-26 19.78 14,500
1979 1979-09-22 21.47 20,500
1980 1980-03-21 15.43 6,430
1981 1981-06-07 9.00 3,040
1982 1982-06-13 17.53 9,130
1983 1983-04-10 19.29 13,100
1984 1984-08-14 17.30 8,740
1985 1985-08-18 12.92 5,170
1986 1985-11-05 22.69 27,100
1987 1987-09-08 24.96 41,900
1988 1987-11-29 5.97 2,340
1989 1989-05-06 22.27 25,600
1990 1990-01-01 12.58 5,630
1991 1990-10-23 20.82 20,600
1992 1992-04-22 20.08 18,200
1993 1993-03-04 18.03 12,400
1994 1994-03-28 16.99 10,300
1995 1995-06-23 29.93 45,900
1996 1996-09-06 22.98 29,200
1997 1996-12-01 14.28 6,700
1998 1998-01-28 15.78 8,260
1999 1999-09-30 16.45 9,280
2000 2000-04-18 8.16 3,500
2001 2001-03-30 8.28 3,560
2002 2002-07-26 2.80 933
2003 2003-02-22 19.44 16,300
2004 2004-09-28 14.59 6,990
2005 2005-01-14 11.79 5,410
2006 2005-10-08 20.30 13,100
2007 2007-03-16 12.33 4,740
2008 2008-04-28 6.81 2,140
2009 2009-05-15 20.77 14,300
2010 2010-01-25 22.56 21,400
2011 2011-09-06 15.85 7,080
2012 2011-12-08 16.57 7,760
2013 2013-05-07 20.25 14,400
2014 2014-01-11 11.05 4,220
2015 2015-04-20 14.67 5,770
2016 2016-06-24 13.06 4,960
2017 2017-05-25 19.062 10,400
2018 2018-02-11 18.79 9,890
2019 2018-12-21 16.78 7,170
2020 2020-04-13 21.53 16,600
2021 2020-11-12 21.53 16,600
?
  Peak Gage-Height Qualification Codes.